Time;durP1;ratioP1;P1;durP2;ratioP2;P2;SDS_P1;SDS_P2;PMS_P1;PMS_P2;Temp;Humidity;BMP_temperature;BMP_pressure;BME280_temperature;BME280_humidity;BME280_pressure;Samples;Min_cycle;Max_cycle;Signal;HPM_P1;HPM_P2
2023/05/29 00:01:59;;;;;;;8.17;4.97;;;;;;;;;;5032489;28;20291;-62
2023/05/29 00:04:29;;;;;;;10.00;5.43;;;;;;;;;;5029736;28;20194;-61
2023/05/29 00:06:56;;;;;;;10.80;5.47;;;;;;;;;;5029608;28;20194;-62
2023/05/29 00:09:23;;;;;;;12.07;5.40;;;;;;;;;;5029446;28;20196;-61
2023/05/29 00:11:52;;;;;;;9.93;4.80;;;;;;;;;;5029653;28;20191;-61
2023/05/29 00:14:19;;;;;;;11.83;5.13;;;;;;;;;;5029133;28;20212;-62
2023/05/29 00:16:50;;;;;;;11.60;4.73;;;;;;;;;;5028778;28;20284;-62
2023/05/29 00:19:17;;;;;;;9.97;4.50;;;;;;;;;;5029761;28;20265;-62
2023/05/29 00:21:47;;;;;;;9.57;4.50;;;;;;;;;;5029539;28;20539;-62
2023/05/29 00:24:16;;;;;;;9.27;4.33;;;;;;;;;;5028743;28;20187;-62
2023/05/29 00:26:45;;;;;;;8.07;4.57;;;;;;;;;;5029464;28;20542;-63
2023/05/29 00:29:13;;;;;;;10.50;4.87;;;;;;;;;;5029086;28;20195;-62
2023/05/29 00:31:40;;;;;;;8.07;4.33;;;;;;;;;;5011365;28;20187;-62
2023/05/29 00:34:09;;;;;;;8.13;4.27;;;;;;;;;;5010687;28;20208;-62
2023/05/29 00:36:36;;;;;;;8.00;4.50;;;;;;;;;;5011353;28;20198;-62
2023/05/29 00:39:03;;;;;;;8.30;4.50;;;;;;;;;;5011586;28;20290;-62
2023/05/29 00:41:30;;;;;;;6.60;4.07;;;;;;;;;;5011035;28;20195;-62
2023/05/29 00:43:57;;;;;;;9.93;4.27;;;;;;;;;;5011095;28;20625;-62
2023/05/29 00:46:24;;;;;;;7.50;4.23;;;;;;;;;;5028924;28;20183;-62
2023/05/29 00:48:50;;;;;;;9.37;4.80;;;;;;;;;;5011493;28;20243;-62
2023/05/29 00:51:17;;;;;;;10.97;4.60;;;;;;;;;;5028869;28;20197;-62
2023/05/29 00:53:44;;;;;;;9.90;4.07;;;;;;;;;;5000002;28;20213;-62
2023/05/29 00:56:11;;;;;;;7.30;4.60;;;;;;;;;;5036252;28;20779;-62
2023/05/29 00:58:39;;;;;;;7.73;4.33;;;;;;;;;;5010790;28;20650;-62
2023/05/29 01:01:07;;;;;;;11.23;5.77;;;;;;;;;;4994610;28;20441;-62
2023/05/29 01:03:37;;;;;;;8.93;4.60;;;;;;;;;;4995145;28;20851;-62
2023/05/29 01:06:07;;;;;;;9.97;4.67;;;;;;;;;;5029000;28;20187;-62
2023/05/29 01:08:34;;;;;;;11.90;4.80;;;;;;;;;;5028902;28;20184;-62
2023/05/29 01:11:13;;;;;;;12.00;4.63;;;;;;;;;;5027864;28;20195;-62
2023/05/29 01:13:41;;;;;;;10.93;4.60;;;;;;;;;;5011342;28;20191;-62
2023/05/29 01:16:08;;;;;;;11.03;4.60;;;;;;;;;;5010951;28;20274;-62
2023/05/29 01:19:12;;;;;;;12.53;4.83;;;;;;;;;;5028398;28;20233;-62
2023/05/29 01:21:48;;;;;;;10.33;4.33;;;;;;;;;;5005716;28;20674;-62
2023/05/29 01:24:20;;;;;;;6.73;4.00;;;;;;;;;;5028546;28;20195;-62
2023/05/29 01:26:56;;;;;;;10.03;4.37;;;;;;;;;;5027827;28;20206;-62
2023/05/29 01:29:28;;;;;;;11.97;4.67;;;;;;;;;;5010513;28;20609;-62
2023/05/29 01:31:55;;;;;;;9.50;4.77;;;;;;;;;;4994740;28;20609;-62
2023/05/29 01:34:21;;;;;;;8.13;4.07;;;;;;;;;;5012387;28;20237;-62
2023/05/29 01:36:48;;;;;;;10.13;4.00;;;;;;;;;;5014514;28;20203;-62
2023/05/29 01:39:16;;;;;;;9.00;3.80;;;;;;;;;;5032608;28;20211;-62
2023/05/29 01:41:43;;;;;;;8.87;3.70;;;;;;;;;;5032441;28;20225;-64
2023/05/29 02:16:06;;;;;;;11.77;3.80;;;;;;;;;;5030462;28;20484;-62
2023/05/29 02:18:36;;;;;;;10.83;4.27;;;;;;;;;;5031430;28;20505;-62
2023/05/29 02:21:05;;;;;;;12.57;4.77;;;;;;;;;;5014278;28;20442;-62
2023/05/29 02:23:35;;;;;;;9.37;4.10;;;;;;;;;;5031521;28;20472;-62
2023/05/29 02:26:02;;;;;;;14.20;3.90;;;;;;;;;;5031619;28;20933;-62
2023/05/29 02:28:28;;;;;;;9.57;4.10;;;;;;;;;;5031126;28;20238;-62
2023/05/29 02:30:55;;;;;;;8.87;4.13;;;;;;;;;;5031568;28;20809;-61
2023/05/29 02:33:22;;;;;;;10.10;4.00;;;;;;;;;;5028930;28;20481;-61
2023/05/29 02:35:49;;;;;;;6.50;3.80;;;;;;;;;;5033088;28;20191;-62
2023/05/29 02:38:19;;;;;;;10.13;4.10;;;;;;;;;;5014924;28;20219;-61
2023/05/29 02:40:46;;;;;;;9.40;4.53;;;;;;;;;;5012693;28;20218;-62
2023/05/29 02:43:14;;;;;;;8.40;3.87;;;;;;;;;;5029974;28;20265;-61
2023/05/29 02:45:41;;;;;;;9.00;3.77;;;;;;;;;;5029048;28;20218;-62
2023/05/29 02:48:07;;;;;;;10.33;4.27;;;;;;;;;;5028296;28;20195;-62
2023/05/29 02:50:36;;;;;;;10.70;5.03;;;;;;;;;;5028965;28;20709;-62
2023/05/29 02:53:03;;;;;;;14.47;4.70;;;;;;;;;;5027996;28;20227;-62
2023/05/29 02:55:31;;;;;;;11.30;4.13;;;;;;;;;;5036858;28;20195;-61
2023/05/29 02:57:59;;;;;;;14.43;5.70;;;;;;;;;;5029119;28;20257;-61
2023/05/29 03:00:28;;;;;;;15.77;5.67;;;;;;;;;;5030310;28;20192;-61
2023/05/29 03:02:57;;;;;;;11.20;4.87;;;;;;;;;;5029586;28;20227;-62
2023/05/29 03:05:28;;;;;;;12.17;4.10;;;;;;;;;;5020876;28;20195;-61
2023/05/29 03:07:55;;;;;;;11.93;4.47;;;;;;;;;;5028471;28;20198;-61
2023/05/29 03:10:25;;;;;;;17.27;4.40;;;;;;;;;;5030935;28;20716;-61
2023/05/29 03:12:54;;;;;;;10.13;4.67;;;;;;;;;;5030448;28;20577;-61
2023/05/29 03:15:22;;;;;;;12.83;5.10;;;;;;;;;;5030409;28;20183;-61
2023/05/29 03:17:49;;;;;;;9.87;4.40;;;;;;;;;;5012629;28;20235;-62
2023/05/29 03:20:20;;;;;;;8.87;4.63;;;;;;;;;;5012740;28;20199;-61
2023/05/29 03:22:57;;;;;;;11.50;4.83;;;;;;;;;;5010577;28;20222;-61
2023/05/29 03:25:24;;;;;;;8.70;5.03;;;;;;;;;;5012803;28;20238;-61
2023/05/29 03:27:50;;;;;;;12.30;4.90;;;;;;;;;;5012496;28;20230;-61
2023/05/29 03:30:20;;;;;;;14.13;5.33;;;;;;;;;;5012250;28;20199;-62
2023/05/29 03:32:48;;;;;;;10.67;5.30;;;;;;;;;;5012552;28;20207;-62
2023/05/29 03:35:47;;;;;;;9.47;4.87;;;;;;;;;;5012769;28;20290;-61
2023/05/29 03:38:17;;;;;;;9.80;4.57;;;;;;;;;;5011789;28;20198;-61
2023/05/29 03:40:56;;;;;;;13.90;4.83;;;;;;;;;;5011279;28;20556;-62
2023/05/29 03:43:24;;;;;;;10.80;4.87;;;;;;;;;;5029649;28;20234;-61
2023/05/29 03:45:52;;;;;;;10.97;4.80;;;;;;;;;;5008187;28;20664;-61
2023/05/29 03:48:30;;;;;;;8.10;4.60;;;;;;;;;;5008677;28;20627;-62
2023/05/29 03:51:00;;;;;;;8.37;4.43;;;;;;;;;;4992646;28;20663;-62
2023/05/29 03:53:34;;;;;;;7.77;4.20;;;;;;;;;;4983442;28;20194;-62
2023/05/29 03:56:01;;;;;;;9.07;4.30;;;;;;;;;;5033594;28;20258;-61
2023/05/29 03:58:28;;;;;;;9.97;4.50;;;;;;;;;;4994476;28;20547;-62
2023/05/29 04:00:55;;;;;;;9.23;4.70;;;;;;;;;;5012104;28;20203;-61
2023/05/29 04:03:29;;;;;;;10.13;4.70;;;;;;;;;;5010211;28;20213;-62
2023/05/29 04:05:57;;;;;;;8.47;4.20;;;;;;;;;;4995781;28;20230;-62
2023/05/29 04:08:25;;;;;;;8.47;4.30;;;;;;;;;;5029572;28;20254;-62
2023/05/29 04:10:53;;;;;;;10.37;3.40;;;;;;;;;;5011884;28;20199;-61
2023/05/29 04:13:23;;;;;;;8.73;3.10;;;;;;;;;;5011582;28;20700;-61
2023/05/29 04:15:53;;;;;;;8.17;3.13;;;;;;;;;;5029440;28;20710;-62
2023/05/29 04:18:20;;;;;;;8.43;3.60;;;;;;;;;;5028423;28;20464;-61
2023/05/29 04:20:47;;;;;;;7.10;3.20;;;;;;;;;;5011814;28;20195;-60
2023/05/29 04:23:16;;;;;;;7.47;2.93;;;;;;;;;;5007526;28;20201;-60
2023/05/29 04:25:43;;;;;;;9.57;2.90;;;;;;;;;;5008241;28;20254;-61
2023/05/29 04:28:12;;;;;;;5.40;2.30;;;;;;;;;;5020865;28;20234;-60
2023/05/29 04:30:39;;;;;;;10.53;3.00;;;;;;;;;;5009786;28;20207;-61
2023/05/29 04:33:09;;;;;;;7.70;3.10;;;;;;;;;;5010677;28;20199;-61
2023/05/29 04:35:36;;;;;;;12.07;3.53;;;;;;;;;;5010554;28;20248;-61
2023/05/29 04:38:07;;;;;;;9.53;3.70;;;;;;;;;;5009465;28;20203;-61
2023/05/29 04:40:36;;;;;;;12.97;4.10;;;;;;;;;;5008060;28;20566;-60
2023/05/29 04:43:05;;;;;;;11.67;3.70;;;;;;;;;;5024557;28;20734;-61
2023/05/29 04:45:51;;;;;;;9.33;3.37;;;;;;;;;;5030846;28;20309;-60
2023/05/29 04:48:27;;;;;;;7.63;3.10;;;;;;;;;;5006548;28;20564;-62
2023/05/29 04:50:54;;;;;;;12.20;3.37;;;;;;;;;;5006892;28;20192;-61
2023/05/29 04:53:23;;;;;;;7.03;3.00;;;;;;;;;;5010527;28;20229;-62
2023/05/29 04:55:50;;;;;;;10.10;3.10;;;;;;;;;;5012013;28;20226;-60
2023/05/29 04:58:17;;;;;;;9.43;3.13;;;;;;;;;;5012589;28;20851;-60
2023/05/29 05:00:48;;;;;;;10.30;2.93;;;;;;;;;;5028713;28;20210;-61
2023/05/29 05:03:19;;;;;;;8.53;2.00;;;;;;;;;;5030506;28;20743;-61
2023/05/29 05:05:47;;;;;;;9.63;2.23;;;;;;;;;;5017503;28;20651;-61
2023/05/29 05:08:20;;;;;;;7.93;2.13;;;;;;;;;;5012197;28;20641;-62
2023/05/29 05:10:47;;;;;;;8.10;1.93;;;;;;;;;;5011760;28;20214;-60
2023/05/29 05:13:18;;;;;;;7.83;1.93;;;;;;;;;;5015718;28;20226;-61
2023/05/29 05:15:45;;;;;;;9.03;2.10;;;;;;;;;;5010900;28;20653;-60
2023/05/29 05:18:13;;;;;;;6.90;2.00;;;;;;;;;;5012020;28;20265;-61
2023/05/29 05:20:56;;;;;;;10.53;2.53;;;;;;;;;;5001505;28;20199;-60
2023/05/29 05:23:24;;;;;;;6.43;1.83;;;;;;;;;;5033684;28;20214;-61
2023/05/29 05:25:51;;;;;;;8.80;2.33;;;;;;;;;;5030514;28;20198;-60
2023/05/29 05:28:19;;;;;;;7.77;2.23;;;;;;;;;;5047886;28;20241;-61
2023/05/29 05:30:53;;;;;;;10.30;2.13;;;;;;;;;;5026469;28;20202;-62
2023/05/29 05:33:22;;;;;;;9.87;2.30;;;;;;;;;;5010278;28;20286;-61
2023/05/29 05:35:51;;;;;;;9.93;2.40;;;;;;;;;;5010091;28;20191;-61
2023/05/29 05:38:18;;;;;;;8.87;2.20;;;;;;;;;;5006035;28;20337;-61
2023/05/29 05:40:46;;;;;;;9.17;2.20;;;;;;;;;;5018389;28;20230;-62
2023/05/29 05:43:21;;;;;;;5.87;2.00;;;;;;;;;;5010277;28;20210;-61
2023/05/29 05:46:11;;;;;;;9.47;2.80;;;;;;;;;;5009177;28;20226;-61
2023/05/29 05:48:40;;;;;;;6.50;1.60;;;;;;;;;;5006385;28;20195;-61
2023/05/29 05:51:08;;;;;;;7.57;2.00;;;;;;;;;;5009642;28;20226;-60
2023/05/29 05:53:36;;;;;;;5.50;1.90;;;;;;;;;;5012512;28;20183;-61
2023/05/29 05:56:07;;;;;;;7.27;2.00;;;;;;;;;;5006978;28;20302;-61
2023/05/29 05:58:35;;;;;;;6.80;2.03;;;;;;;;;;5008642;28;20586;-60
2023/05/29 06:01:08;;;;;;;6.40;2.27;;;;;;;;;;5009132;28;20199;-61
2023/05/29 06:03:37;;;;;;;9.70;2.17;;;;;;;;;;5028041;28;20219;-61
2023/05/29 06:06:07;;;;;;;8.63;2.43;;;;;;;;;;4995050;28;20214;-61
2023/05/29 06:08:37;;;;;;;6.53;1.67;;;;;;;;;;5010140;28;20554;-61
2023/05/29 06:11:05;;;;;;;6.80;2.50;;;;;;;;;;5010026;28;20195;-61
2023/05/29 06:13:37;;;;;;;6.47;2.07;;;;;;;;;;5010075;28;20570;-61
2023/05/29 06:16:08;;;;;;;8.57;2.37;;;;;;;;;;5010272;28;20601;-61
2023/05/29 06:18:35;;;;;;;7.53;1.97;;;;;;;;;;5010187;28;20220;-61
2023/05/29 06:21:02;;;;;;;5.17;1.73;;;;;;;;;;5027644;28;20199;-61
2023/05/29 06:23:29;;;;;;;6.83;2.10;;;;;;;;;;5031512;28;20207;-61
2023/05/29 06:25:56;;;;;;;5.53;1.90;;;;;;;;;;5013827;28;20191;-61
2023/05/29 06:28:23;;;;;;;6.57;2.10;;;;;;;;;;5013592;28;20208;-61
2023/05/29 06:30:50;;;;;;;8.93;2.03;;;;;;;;;;4997600;28;20257;-61
2023/05/29 06:33:24;;;;;;;9.40;2.13;;;;;;;;;;5030277;28;20245;-61
2023/05/29 06:35:51;;;;;;;7.53;2.10;;;;;;;;;;5013626;28;20199;-61
2023/05/29 06:38:29;;;;;;;14.23;2.53;;;;;;;;;;5013315;28;20609;-61
2023/05/29 06:40:59;;;;;;;9.57;2.33;;;;;;;;;;5013274;28;20203;-61
2023/05/29 06:43:27;;;;;;;9.20;2.17;;;;;;;;;;5013050;28;20203;-61
2023/05/29 06:46:02;;;;;;;9.03;2.10;;;;;;;;;;5030778;28;20651;-62
2023/05/29 06:48:32;;;;;;;7.13;2.20;;;;;;;;;;5013045;28;20249;-61
2023/05/29 06:50:59;;;;;;;5.63;1.80;;;;;;;;;;4997366;28;20199;-61
2023/05/29 06:53:44;;;;;;;6.33;2.03;;;;;;;;;;5035901;28;20194;-61
2023/05/29 06:56:15;;;;;;;8.07;2.23;;;;;;;;;;5032936;28;20285;-61
2023/05/29 06:58:45;;;;;;;7.77;1.90;;;;;;;;;;5050636;28;20301;-61
2023/05/29 07:01:16;;;;;;;7.07;1.93;;;;;;;;;;5050833;28;20191;-61
2023/05/29 07:03:57;;;;;;;4.00;1.50;;;;;;;;;;5050981;28;20272;-61
2023/05/29 07:06:25;;;;;;;6.53;1.90;;;;;;;;;;5033627;28;20191;-60
2023/05/29 07:08:52;;;;;;;8.13;1.87;;;;;;;;;;5050894;28;20241;-61
2023/05/29 07:11:22;;;;;;;4.73;1.40;;;;;;;;;;5032493;28;20201;-61
2023/05/29 07:13:53;;;;;;;6.30;1.83;;;;;;;;;;5032632;28;20553;-61
2023/05/29 07:16:25;;;;;;;7.10;1.97;;;;;;;;;;5032646;28;20226;-61
2023/05/29 07:19:16;;;;;;;5.37;1.73;;;;;;;;;;5016789;28;20313;-61
2023/05/29 07:22:16;;;;;;;10.67;1.83;;;;;;;;;;5032358;28;20618;-61
2023/05/29 07:25:33;;;;;;;5.43;1.80;;;;;;;;;;4949781;29;20232;-62
2023/05/29 07:28:01;;;;;;;5.43;1.57;;;;;;;;;;4949641;29;20743;-61
2023/05/29 07:30:47;;;;;;;7.07;2.20;;;;;;;;;;4933543;29;20609;-62
2023/05/29 07:33:13;;;;;;;5.00;1.90;;;;;;;;;;4949890;28;20736;-61
2023/05/29 07:35:42;;;;;;;8.93;2.10;;;;;;;;;;4949714;29;20380;-61
2023/05/29 07:38:09;;;;;;;4.47;1.60;;;;;;;;;;4949340;29;20200;-62
2023/05/29 07:40:40;;;;;;;7.43;1.70;;;;;;;;;;4933372;29;20206;-62
2023/05/29 07:43:24;;;;;;;7.40;1.73;;;;;;;;;;4949125;29;20206;-61
2023/05/29 07:45:56;;;;;;;4.63;1.53;;;;;;;;;;4933374;29;20817;-61
2023/05/29 07:48:24;;;;;;;7.30;1.80;;;;;;;;;;4972036;28;20207;-61
2023/05/29 07:50:51;;;;;;;3.83;1.47;;;;;;;;;;4992802;28;20545;-61
2023/05/29 07:53:19;;;;;;;8.30;1.83;;;;;;;;;;4994669;28;20291;-61
2023/05/29 07:55:49;;;;;;;8.27;1.90;;;;;;;;;;5031689;28;20195;-61
2023/05/29 07:58:17;;;;;;;4.97;1.77;;;;;;;;;;5048405;28;20562;-61
2023/05/29 08:01:01;;;;;;;8.67;1.83;;;;;;;;;;5031473;28;20198;-61
2023/05/29 08:03:29;;;;;;;5.97;1.70;;;;;;;;;;5031814;28;20727;-61
2023/05/29 08:06:16;;;;;;;3.43;1.40;;;;;;;;;;5049937;28;20772;-61
2023/05/29 08:08:47;;;;;;;7.37;2.00;;;;;;;;;;5031864;28;20214;-61
2023/05/29 08:11:21;;;;;;;8.70;1.87;;;;;;;;;;5031160;28;20276;-62
2023/05/29 08:13:48;;;;;;;3.87;1.53;;;;;;;;;;5031402;28;20218;-61
2023/05/29 08:16:16;;;;;;;4.37;1.57;;;;;;;;;;5031542;28;20222;-61
2023/05/29 08:18:43;;;;;;;3.90;1.63;;;;;;;;;;5049138;28;20226;-61
2023/05/29 08:21:11;;;;;;;5.87;1.80;;;;;;;;;;5049553;28;20170;-61
2023/05/29 08:23:49;;;;;;;7.07;1.60;;;;;;;;;;5049426;28;20190;-62
2023/05/29 08:26:16;;;;;;;5.33;1.40;;;;;;;;;;5049145;28;20211;-61
2023/05/29 08:28:43;;;;;;;5.53;1.80;;;;;;;;;;5048676;28;20202;-61
2023/05/29 08:31:10;;;;;;;5.63;1.70;;;;;;;;;;5047879;28;20577;-60
2023/05/29 08:34:06;;;;;;;3.53;1.47;;;;;;;;;;5049121;28;20579;-60
2023/05/29 08:36:51;;;;;;;3.67;1.17;;;;;;;;;;5048906;28;20243;-60
2023/05/29 08:39:18;;;;;;;5.03;1.73;;;;;;;;;;5049179;28;20240;-61
2023/05/29 08:41:50;;;;;;;5.77;1.70;;;;;;;;;;5049040;28;20216;-60
2023/05/29 08:44:21;;;;;;;3.00;1.30;;;;;;;;;;5047636;28;20230;-60
2023/05/29 08:46:55;;;;;;;4.07;1.23;;;;;;;;;;5048607;28;20186;-63
2023/05/29 08:49:22;;;;;;;3.10;1.07;;;;;;;;;;5048545;28;20673;-61
2023/05/29 08:51:50;;;;;;;5.93;1.50;;;;;;;;;;5048594;28;20175;-61
2023/05/29 08:54:18;;;;;;;6.73;1.77;;;;;;;;;;5022225;28;20195;-61
2023/05/29 08:56:46;;;;;;;5.33;1.07;;;;;;;;;;5029140;28;20195;-61
2023/05/29 08:59:25;;;;;;;4.03;1.20;;;;;;;;;;5012958;28;20194;-61
2023/05/29 09:01:58;;;;;;;5.90;1.40;;;;;;;;;;5028658;28;20196;-61
2023/05/29 09:04:25;;;;;;;5.23;1.70;;;;;;;;;;5028745;28;20235;-61
2023/05/29 09:06:55;;;;;;;5.53;1.50;;;;;;;;;;5028572;28;20184;-61
2023/05/29 09:09:27;;;;;;;2.40;1.10;;;;;;;;;;5028723;28;20200;-61
2023/05/29 09:11:54;;;;;;;4.17;1.40;;;;;;;;;;5028764;28;20183;-61
2023/05/29 09:14:36;;;;;;;3.53;1.23;;;;;;;;;;5010925;28;20306;-61
2023/05/29 09:17:08;;;;;;;3.77;1.17;;;;;;;;;;5028145;28;20194;-61
2023/05/29 09:19:40;;;;;;;4.73;1.40;;;;;;;;;;5028512;28;20203;-61
2023/05/29 09:22:16;;;;;;;3.93;1.30;;;;;;;;;;5028197;28;20195;-62
2023/05/29 09:24:47;;;;;;;5.27;1.63;;;;;;;;;;5028429;28;20586;-61
2023/05/29 09:27:17;;;;;;;3.83;1.40;;;;;;;;;;5028393;28;20195;-61
2023/05/29 09:29:44;;;;;;;3.80;1.30;;;;;;;;;;5029034;28;20187;-61
2023/05/29 09:32:22;;;;;;;2.33;1.00;;;;;;;;;;5012261;28;20207;-61
2023/05/29 09:34:49;;;;;;;7.63;1.30;;;;;;;;;;5028394;28;20211;-61
2023/05/29 09:37:22;;;;;;;3.53;1.00;;;;;;;;;;5011409;28;20198;-61
2023/05/29 09:39:49;;;;;;;2.90;1.30;;;;;;;;;;5028510;28;20716;-60
2023/05/29 09:42:28;;;;;;;12.17;1.80;;;;;;;;;;5028160;28;20241;-60
2023/05/29 09:45:04;;;;;;;4.63;1.00;;;;;;;;;;5011756;28;20649;-61
2023/05/29 09:47:34;;;;;;;4.03;1.10;;;;;;;;;;5028195;28;20205;-60
2023/05/29 09:50:21;;;;;;;2.60;1.10;;;;;;;;;;5012079;28;20266;-60
2023/05/29 09:53:18;;;;;;;4.20;1.00;;;;;;;;;;4967229;28;20616;-61
2023/05/29 09:55:47;;;;;;;2.47;0.93;;;;;;;;;;4988326;28;21551;-61
2023/05/29 09:58:27;;;;;;;5.50;1.10;;;;;;;;;;4988215;28;20204;-61
2023/05/29 10:00:59;;;;;;;3.87;0.90;;;;;;;;;;4990275;28;20184;-61
2023/05/29 10:03:25;;;;;;;4.07;1.20;;;;;;;;;;4990068;28;20197;-61
2023/05/29 10:05:56;;;;;;;2.93;1.00;;;;;;;;;;4990455;28;20809;-61
2023/05/29 10:08:25;;;;;;;2.60;0.93;;;;;;;;;;4990171;28;20200;-61
2023/05/29 10:11:04;;;;;;;2.80;0.97;;;;;;;;;;4990403;28;20208;-61
2023/05/29 10:13:32;;;;;;;8.97;1.43;;;;;;;;;;4989717;28;20204;-61
2023/05/29 10:16:07;;;;;;;3.43;1.00;;;;;;;;;;4989682;28;20208;-61
2023/05/29 10:18:34;;;;;;;6.57;1.13;;;;;;;;;;4989591;28;20283;-61
2023/05/29 10:21:00;;;;;;;3.67;0.90;;;;;;;;;;4990201;28;20193;-61
2023/05/29 10:23:28;;;;;;;2.60;0.97;;;;;;;;;;4989726;28;20197;-61
2023/05/29 10:25:59;;;;;;;3.53;1.10;;;;;;;;;;4989711;28;20960;-60
2023/05/29 10:28:26;;;;;;;3.97;1.13;;;;;;;;;;5005980;28;20198;-61
2023/05/29 10:30:54;;;;;;;4.10;0.90;;;;;;;;;;5033830;28;20565;-61
2023/05/29 10:33:40;;;;;;;5.23;1.03;;;;;;;;;;5051059;28;20262;-61
2023/05/29 10:36:16;;;;;;;3.37;1.10;;;;;;;;;;5051594;28;20186;-61
2023/05/29 10:38:44;;;;;;;3.90;1.00;;;;;;;;;;5033830;28;20197;-61
2023/05/29 10:41:33;;;;;;;3.30;1.10;;;;;;;;;;5035820;28;20218;-61
2023/05/29 10:44:07;;;;;;;2.83;1.00;;;;;;;;;;5050800;28;20549;-61
2023/05/29 10:46:47;;;;;;;2.20;0.87;;;;;;;;;;5051146;28;20253;-60
2023/05/29 10:49:17;;;;;;;7.60;1.10;;;;;;;;;;5051123;28;20677;-61
2023/05/29 10:51:44;;;;;;;3.80;0.90;;;;;;;;;;5051286;28;20187;-61
2023/05/29 10:54:11;;;;;;;2.97;1.00;;;;;;;;;;5042997;28;20198;-60
2023/05/29 10:56:55;;;;;;;4.80;1.23;;;;;;;;;;5031276;28;20651;-60
2023/05/29 10:59:28;;;;;;;2.43;0.83;;;;;;;;;;5030899;28;20270;-61
2023/05/29 11:01:57;;;;;;;3.87;1.27;;;;;;;;;;5030796;28;20244;-61
2023/05/29 11:04:28;;;;;;;1.80;1.00;;;;;;;;;;5013591;28;20216;-61
2023/05/29 11:06:58;;;;;;;2.47;1.00;;;;;;;;;;5012301;28;20193;-61
2023/05/29 11:09:30;;;;;;;2.53;1.00;;;;;;;;;;5030803;28;20907;-60
2023/05/29 11:12:13;;;;;;;3.37;0.80;;;;;;;;;;5031067;28;20204;-61
2023/05/29 11:14:56;;;;;;;5.23;0.93;;;;;;;;;;5030876;28;20189;-62
2023/05/29 11:17:29;;;;;;;2.23;0.90;;;;;;;;;;5030400;28;20216;-60
2023/05/29 11:19:56;;;;;;;2.20;0.80;;;;;;;;;;5030512;28;20205;-61
2023/05/29 11:22:29;;;;;;;3.17;0.80;;;;;;;;;;5030750;28;20190;-61
2023/05/29 11:24:57;;;;;;;2.47;0.90;;;;;;;;;;5030385;28;20746;-61
2023/05/29 11:27:51;;;;;;;2.67;1.33;;;;;;;;;;5012305;28;20207;-61
2023/05/29 11:30:19;;;;;;;3.30;1.20;;;;;;;;;;5030301;28;20191;-61
2023/05/29 11:32:53;;;;;;;2.87;0.93;;;;;;;;;;5030735;28;20195;-60
2023/05/29 11:35:21;;;;;;;3.70;0.83;;;;;;;;;;4996043;28;20190;-61
2023/05/29 11:37:50;;;;;;;3.07;0.90;;;;;;;;;;5030010;28;20201;-61
2023/05/29 11:40:17;;;;;;;3.70;1.10;;;;;;;;;;5029679;28;20199;-61
2023/05/29 11:42:50;;;;;;;4.13;1.17;;;;;;;;;;5012832;28;20274;-61
2023/05/29 11:45:19;;;;;;;4.03;1.20;;;;;;;;;;5012442;28;20226;-61
2023/05/29 11:47:55;;;;;;;3.23;0.93;;;;;;;;;;5030286;28;20665;-61
2023/05/29 11:50:26;;;;;;;3.87;1.07;;;;;;;;;;5029737;28;20948;-61
2023/05/29 11:52:55;;;;;;;5.97;1.40;;;;;;;;;;5029939;28;20294;-61
2023/05/29 11:55:28;;;;;;;3.07;1.17;;;;;;;;;;5048478;28;20233;-60
2023/05/29 11:58:11;;;;;;;8.60;1.20;;;;;;;;;;5049555;28;20554;-60
2023/05/29 12:00:51;;;;;;;2.67;1.03;;;;;;;;;;5044754;28;20685;-61
2023/05/29 12:03:40;;;;;;;2.83;1.10;;;;;;;;;;5049512;28;20190;-60
2023/05/29 12:06:10;;;;;;;9.77;1.57;;;;;;;;;;5049833;28;20272;-61
2023/05/29 12:08:37;;;;;;;2.73;0.97;;;;;;;;;;5049556;28;20194;-61
2023/05/29 12:11:04;;;;;;;2.57;1.00;;;;;;;;;;5049583;28;20194;-61
2023/05/29 12:13:54;;;;;;;4.40;1.27;;;;;;;;;;5048872;28;20252;-61
2023/05/29 12:16:23;;;;;;;5.67;1.40;;;;;;;;;;5049351;28;20295;-61
2023/05/29 12:18:50;;;;;;;3.07;1.10;;;;;;;;;;5047991;28;20698;-61
2023/05/29 12:21:16;;;;;;;3.83;1.10;;;;;;;;;;5032060;28;20270;-61
2023/05/29 12:23:54;;;;;;;4.17;1.10;;;;;;;;;;5033352;28;20191;-60
2023/05/29 12:26:39;;;;;;;5.13;1.20;;;;;;;;;;5049053;28;20215;-61
2023/05/29 12:29:49;;;;;;;6.50;1.63;;;;;;;;;;5016855;28;20671;-60
2023/05/29 12:32:16;;;;;;;5.27;1.10;;;;;;;;;;5045241;28;20195;-60
2023/05/29 12:34:43;;;;;;;5.17;1.23;;;;;;;;;;5048936;28;20198;-60
2023/05/29 12:37:13;;;;;;;4.70;1.07;;;;;;;;;;5049074;28;20201;-61
2023/05/29 12:39:42;;;;;;;10.20;1.97;;;;;;;;;;5030488;28;20221;-61
2023/05/29 12:42:20;;;;;;;4.83;1.30;;;;;;;;;;5048247;28;20285;-61
2023/05/29 12:44:51;;;;;;;5.17;1.57;;;;;;;;;;5048841;28;20258;-61
2023/05/29 12:47:23;;;;;;;6.07;1.10;;;;;;;;;;5031675;28;20198;-61
2023/05/29 12:49:53;;;;;;;5.83;1.27;;;;;;;;;;5048906;28;20216;-60
2023/05/29 12:52:20;;;;;;;5.63;1.20;;;;;;;;;;5048774;28;20220;-60
2023/05/29 12:55:09;;;;;;;3.63;1.20;;;;;;;;;;5031019;28;20191;-61
2023/05/29 12:57:36;;;;;;;3.87;1.43;;;;;;;;;;5010973;28;20218;-61
2023/05/29 13:00:03;;;;;;;7.77;1.50;;;;;;;;;;5028903;28;20191;-61
2023/05/29 13:02:33;;;;;;;5.40;1.30;;;;;;;;;;5026718;28;20606;-62
2023/05/29 13:05:05;;;;;;;2.77;1.10;;;;;;;;;;5029616;28;20193;-61
2023/05/29 13:07:32;;;;;;;4.33;1.30;;;;;;;;;;5030007;28;20193;-61
2023/05/29 13:10:01;;;;;;;5.47;1.50;;;;;;;;;;5030768;28;20275;-61
2023/05/29 13:12:34;;;;;;;6.13;1.30;;;;;;;;;;5030358;28;20783;-62
2023/05/29 13:15:09;;;;;;;4.50;1.63;;;;;;;;;;5030290;28;20676;-61
2023/05/29 13:17:36;;;;;;;6.47;1.60;;;;;;;;;;5029780;28;20226;-61
2023/05/29 13:20:11;;;;;;;3.97;1.33;;;;;;;;;;5029815;28;20196;-61
2023/05/29 13:23:01;;;;;;;4.07;1.40;;;;;;;;;;5030458;28;20266;-61
2023/05/29 13:25:41;;;;;;;5.50;1.70;;;;;;;;;;5030211;28;20544;-61
2023/05/29 13:28:07;;;;;;;4.13;1.33;;;;;;;;;;5012633;28;20204;-61
2023/05/29 13:30:34;;;;;;;4.17;1.47;;;;;;;;;;5030012;28;20192;-61
2023/05/29 13:33:04;;;;;;;4.10;1.40;;;;;;;;;;5030028;28;20198;-62
2023/05/29 13:35:31;;;;;;;5.77;1.70;;;;;;;;;;5030215;28;20186;-61
2023/05/29 13:38:01;;;;;;;4.27;1.70;;;;;;;;;;5030278;28;20563;-62
2023/05/29 13:40:36;;;;;;;5.53;1.33;;;;;;;;;;5015766;28;20185;-62
2023/05/29 13:43:03;;;;;;;3.60;1.27;;;;;;;;;;5029774;28;20223;-61
2023/05/29 13:45:33;;;;;;;4.57;1.20;;;;;;;;;;5025025;28;20219;-61
2023/05/29 13:48:00;;;;;;;4.03;1.27;;;;;;;;;;5030316;28;20188;-61
2023/05/29 13:50:36;;;;;;;5.13;1.40;;;;;;;;;;5029317;28;20233;-61
2023/05/29 13:53:17;;;;;;;5.13;1.40;;;;;;;;;;5030284;28;20229;-61
2023/05/29 13:55:44;;;;;;;3.63;1.13;;;;;;;;;;5029397;28;20191;-61
2023/05/29 13:58:11;;;;;;;4.97;1.27;;;;;;;;;;5030033;28;20199;-61
2023/05/29 14:00:38;;;;;;;16.43;2.63;;;;;;;;;;5030048;28;20656;-61
2023/05/29 14:03:13;;;;;;;4.00;1.27;;;;;;;;;;5029764;28;20203;-61
2023/05/29 14:05:40;;;;;;;12.30;1.90;;;;;;;;;;5011226;28;20230;-61
2023/05/29 14:08:07;;;;;;;6.20;1.40;;;;;;;;;;5029496;28;20196;-61
2023/05/29 14:10:58;;;;;;;5.33;1.40;;;;;;;;;;5022641;28;20302;-61
2023/05/29 14:13:24;;;;;;;5.70;1.10;;;;;;;;;;5012296;28;20676;-61
2023/05/29 14:15:55;;;;;;;4.90;1.13;;;;;;;;;;5029865;28;20199;-61
2023/05/29 14:18:29;;;;;;;38.47;5.03;;;;;;;;;;5029854;28;20226;-61
2023/05/29 14:20:56;;;;;;;6.13;1.33;;;;;;;;;;5029842;28;20562;-61
2023/05/29 14:23:34;;;;;;;6.50;1.50;;;;;;;;;;5011373;28;20849;-61
2023/05/29 14:26:16;;;;;;;5.23;1.30;;;;;;;;;;5029599;28;20355;-61
2023/05/29 14:28:48;;;;;;;5.27;1.37;;;;;;;;;;5029059;28;20585;-61
2023/05/29 14:31:25;;;;;;;4.13;1.37;;;;;;;;;;5029133;28;20803;-61
2023/05/29 14:33:52;;;;;;;6.17;1.60;;;;;;;;;;5029268;28;20713;-61
2023/05/29 14:36:19;;;;;;;5.40;1.40;;;;;;;;;;5029501;28;20713;-61
2023/05/29 14:38:47;;;;;;;4.83;1.40;;;;;;;;;;5029537;28;20589;-60
2023/05/29 14:41:15;;;;;;;4.03;1.53;;;;;;;;;;5028503;28;20206;-62
2023/05/29 14:43:43;;;;;;;2.97;1.17;;;;;;;;;;5032466;28;20670;-60
2023/05/29 14:46:33;;;;;;;4.93;1.50;;;;;;;;;;5031112;28;20231;-61
2023/05/29 14:49:11;;;;;;;2.87;1.23;;;;;;;;;;5033233;28;20195;-61
2023/05/29 14:51:45;;;;;;;7.30;1.80;;;;;;;;;;5032849;28;20198;-61
2023/05/29 14:54:24;;;;;;;7.60;2.47;;;;;;;;;;5042862;28;20193;-61
2023/05/29 14:57:06;;;;;;;4.60;1.50;;;;;;;;;;5018120;28;20191;-61
2023/05/29 14:59:33;;;;;;;4.27;1.30;;;;;;;;;;5032439;28;20229;-61
2023/05/29 15:02:00;;;;;;;4.77;1.27;;;;;;;;;;5014975;28;20524;-61
2023/05/29 15:04:42;;;;;;;4.17;1.23;;;;;;;;;;5032985;28;20191;-61
2023/05/29 15:07:11;;;;;;;4.77;1.27;;;;;;;;;;5032623;28;20303;-61
2023/05/29 15:09:38;;;;;;;5.50;1.30;;;;;;;;;;5032939;28;20824;-61
2023/05/29 15:12:07;;;;;;;8.67;1.33;;;;;;;;;;5032369;28;20195;-61
2023/05/29 15:14:34;;;;;;;5.17;1.30;;;;;;;;;;5032659;28;20282;-61
2023/05/29 15:17:04;;;;;;;6.50;1.80;;;;;;;;;;5032156;28;20713;-61
2023/05/29 15:19:45;;;;;;;7.40;2.20;;;;;;;;;;5030648;28;20214;-61
2023/05/29 15:22:12;;;;;;;6.33;1.60;;;;;;;;;;5031884;28;20184;-62
2023/05/29 15:24:39;;;;;;;7.40;2.10;;;;;;;;;;5031895;28;20753;-61
2023/05/29 15:27:06;;;;;;;6.73;1.63;;;;;;;;;;5032382;28;20842;-61
2023/05/29 15:29:41;;;;;;;6.17;1.63;;;;;;;;;;5031881;28;20724;-61
2023/05/29 15:32:12;;;;;;;9.00;1.70;;;;;;;;;;5013843;28;20666;-61
2023/05/29 15:34:53;;;;;;;5.90;1.80;;;;;;;;;;5031757;28;20195;-61
2023/05/29 15:37:20;;;;;;;5.27;1.80;;;;;;;;;;5013986;28;20187;-62
2023/05/29 15:39:59;;;;;;;6.63;1.40;;;;;;;;;;5032326;28;20191;-61